Time;durP1;ratioP1;P1;durP2;ratioP2;P2;SDS_P1;SDS_P2;PMS_P1;PMS_P2;Temp;Humidity;BMP_temperature;BMP_pressure;BME280_temperature;BME280_humidity;BME280_pressure;Samples;Min_cycle;Max_cycle;Signal;HPM_P1;HPM_P2
2022/07/23 00:01:36;;;;;;;5.20;4.10;;;28.80;52.60;;;;;;5093157;28;20031;-82
2022/07/23 00:04:02;;;;;;;4.25;3.80;;;28.70;52.80;;;;;;5093852;28;20032;-82
2022/07/23 00:06:27;;;;;;;6.25;4.22;;;28.70;52.70;;;;;;5094098;28;20039;-82
2022/07/23 00:08:53;;;;;;;4.88;3.45;;;28.70;52.60;;;;;;5093976;28;20063;-82
2022/07/23 00:11:19;;;;;;;5.00;3.78;;;28.70;52.90;;;;;;5093767;28;20024;-82
2022/07/23 00:13:45;;;;;;;5.57;4.28;;;28.70;53.00;;;;;;5094152;28;20446;-82
2022/07/23 00:16:10;;;;;;;6.18;4.20;;;28.60;53.20;;;;;;5093338;28;20448;-82
2022/07/23 00:18:36;;;;;;;5.28;3.88;;;28.60;53.30;;;;;;5093610;28;20055;-82
2022/07/23 00:21:02;;;;;;;4.03;3.60;;;28.60;53.20;;;;;;5093214;28;20056;-82
2022/07/23 00:23:29;;;;;;;5.35;3.83;;;28.60;52.80;;;;;;5093818;28;20132;-82
2022/07/23 00:25:55;;;;;;;6.25;4.07;;;28.50;52.90;;;;;;5093998;28;20020;-82
2022/07/23 00:28:21;;;;;;;7.05;3.75;;;28.50;53.00;;;;;;5093383;28;20071;-82
2022/07/23 00:30:46;;;;;;;3.60;3.30;;;28.50;53.10;;;;;;5093614;28;20030;-82
2022/07/23 00:33:12;;;;;;;5.53;3.92;;;28.50;53.00;;;;;;5093369;28;20032;-82
2022/07/23 00:35:42;;;;;;;6.70;3.65;;;28.50;53.10;;;;;;5093539;28;20031;-82
2022/07/23 00:38:09;;;;;;;4.72;3.83;;;28.50;53.60;;;;;;5093373;28;20051;-82
2022/07/23 00:40:36;;;;;;;3.75;3.33;;;28.50;53.40;;;;;;5094049;28;20035;-82
2022/07/23 00:43:02;;;;;;;4.18;3.50;;;28.40;53.70;;;;;;5092857;28;20024;-82
2022/07/23 00:45:28;;;;;;;7.05;4.15;;;28.40;53.70;;;;;;5092137;28;20036;-82
2022/07/23 00:47:54;;;;;;;5.25;4.18;;;28.30;54.20;;;;;;5093488;28;20051;-82
2022/07/23 00:50:19;;;;;;;5.78;4.15;;;28.20;54.30;;;;;;5092958;28;20460;-82
2022/07/23 00:52:45;;;;;;;5.25;3.58;;;28.20;54.20;;;;;;5093132;28;20457;-82
2022/07/23 00:55:12;;;;;;;4.93;4.25;;;28.20;54.40;;;;;;5093020;28;20031;-82
2022/07/23 00:57:39;;;;;;;5.82;3.60;;;28.20;54.80;;;;;;5093339;28;20032;-82
2022/07/23 01:00:08;;;;;;;5.22;3.88;;;28.10;54.60;;;;;;5092562;28;20482;-82
2022/07/23 01:02:34;;;;;;;5.63;3.50;;;28.10;54.80;;;;;;5093339;28;20039;-82
2022/07/23 01:04:59;;;;;;;3.92;3.53;;;28.10;55.10;;;;;;5125738;27;20587;-81
2022/07/23 01:07:25;;;;;;;5.70;3.63;;;28.00;55.00;;;;;;5093472;28;20047;-82
2022/07/23 01:09:54;;;;;;;5.20;3.88;;;28.00;55.00;;;;;;5092819;28;20055;-82
2022/07/23 01:12:20;;;;;;;4.25;3.72;;;28.00;55.20;;;;;;5092830;28;20111;-82
2022/07/23 01:14:54;;;;;;;5.45;4.30;;;28.00;55.10;;;;;;5093173;28;20020;-82
2022/07/23 01:17:19;;;;;;;5.93;4.25;;;27.90;55.30;;;;;;5092823;28;20350;-82
2022/07/23 01:19:45;;;;;;;8.35;4.70;;;27.80;55.60;;;;;;5092857;28;20056;-82
2022/07/23 01:22:11;;;;;;;6.03;4.00;;;27.90;55.70;;;;;;5092672;28;20024;-82
2022/07/23 01:24:36;;;;;;;4.90;4.00;;;27.80;55.50;;;;;;5093863;28;20101;-82
2022/07/23 01:27:03;;;;;;;3.97;3.58;;;27.90;55.60;;;;;;5095382;28;20371;-82
2022/07/23 01:29:28;;;;;;;5.82;4.05;;;27.90;55.40;;;;;;5096811;28;20520;-82
2022/07/23 01:31:54;;;;;;;5.00;4.38;;;27.90;57.10;;;;;;5099511;28;20055;-82
2022/07/23 01:34:20;;;;;;;5.45;4.60;;;27.80;59.00;;;;;;5097614;28;20632;-81
2022/07/23 01:36:46;;;;;;;6.03;3.95;;;27.60;59.70;;;;;;5104363;28;20020;-81
2022/07/23 01:39:12;;;;;;;9.43;4.25;;;27.50;59.70;;;;;;5116401;28;20107;-81
2022/07/23 01:41:38;;;;;;;5.03;4.15;;;27.30;60.60;;;;;;5117398;28;20028;-81
2022/07/23 01:44:03;;;;;;;5.82;4.80;;;27.10;62.10;;;;;;5110094;28;20032;-81
2022/07/23 01:46:29;;;;;;;4.85;4.18;;;26.90;63.00;;;;;;5098401;28;20372;-82
2022/07/23 01:48:55;;;;;;;5.53;4.07;;;26.90;64.00;;;;;;5098439;28;20028;-82
2022/07/23 01:51:20;;;;;;;6.32;4.47;;;26.70;64.80;;;;;;5097121;28;20107;-81
2022/07/23 01:53:46;;;;;;;5.07;4.35;;;26.70;65.40;;;;;;5097416;28;20028;-81
2022/07/23 01:56:12;;;;;;;5.80;4.97;;;26.70;65.90;;;;;;5096388;28;20027;-81
2022/07/23 01:58:37;;;;;;;5.15;4.65;;;26.60;66.20;;;;;;5096810;28;20384;-81
2022/07/23 02:01:03;;;;;;;6.05;4.50;;;26.60;66.80;;;;;;5096643;28;20036;-80
2022/07/23 02:03:28;;;;;;;5.97;4.68;;;26.60;67.00;;;;;;5096549;28;20104;-82
2022/07/23 02:05:54;;;;;;;7.07;4.88;;;26.50;67.30;;;;;;5096319;28;20494;-81
2022/07/23 02:08:20;;;;;;;5.65;4.38;;;26.50;67.60;;;;;;5096103;28;20077;-81
2022/07/23 02:10:45;;;;;;;7.30;5.80;;;26.50;67.80;;;;;;5096443;28;20016;-81
2022/07/23 02:13:11;;;;;;;5.90;5.10;;;26.50;69.00;;;;;;5095748;28;20120;-81
2022/07/23 02:15:37;;;;;;;5.43;4.50;;;26.50;69.50;;;;;;5095984;28;20024;-81
2022/07/23 02:18:03;;;;;;;6.50;5.13;;;26.50;69.20;;;;;;5096724;28;20032;-81
2022/07/23 02:20:28;;;;;;;7.05;5.10;;;26.50;69.20;;;;;;5096002;28;20103;-81
2022/07/23 02:22:54;;;;;;;5.40;4.50;;;26.50;69.10;;;;;;5095828;28;20032;-81
2022/07/23 02:25:20;;;;;;;5.85;4.57;;;26.60;68.80;;;;;;5095495;28;20387;-81
2022/07/23 02:27:45;;;;;;;4.97;4.20;;;26.60;68.70;;;;;;5095745;28;20173;-81
2022/07/23 02:30:11;;;;;;;8.25;5.10;;;26.70;68.20;;;;;;5095333;28;20496;-80
2022/07/23 02:32:39;;;;;;;5.50;4.13;;;26.70;67.90;;;;;;5096025;28;20056;-81
2022/07/23 02:35:05;;;;;;;5.05;4.18;;;26.70;67.50;;;;;;5095411;28;20089;-81
2022/07/23 02:37:31;;;;;;;7.97;5.20;;;26.80;67.20;;;;;;5095901;28;20103;-81
2022/07/23 02:39:57;;;;;;;6.07;4.65;;;26.80;66.90;;;;;;5095668;28;20059;-82
2022/07/23 02:42:23;;;;;;;6.80;4.65;;;26.90;66.90;;;;;;5095191;28;20028;-81
2022/07/23 02:44:50;;;;;;;5.88;4.72;;;26.90;66.50;;;;;;5095727;28;20028;-81
2022/07/23 02:47:16;;;;;;;6.18;4.38;;;26.90;66.50;;;;;;5095350;28;20028;-80
2022/07/23 02:49:41;;;;;;;6.28;4.88;;;27.00;66.10;;;;;;5095805;28;20041;-80
2022/07/23 02:52:07;;;;;;;6.05;4.20;;;27.00;66.10;;;;;;5095256;28;20047;-80
2022/07/23 02:54:33;;;;;;;6.47;4.85;;;27.00;65.80;;;;;;5095496;28;20043;-81
2022/07/23 02:56:59;;;;;;;7.13;5.03;;;27.00;65.60;;;;;;5096009;28;20453;-81
2022/07/23 02:59:24;;;;;;;5.47;4.28;;;27.00;65.40;;;;;;5095146;28;20027;-81
2022/07/23 03:01:50;;;;;;;6.78;4.63;;;27.00;65.30;;;;;;5095800;28;20024;-81
2022/07/23 03:04:15;;;;;;;5.68;4.78;;;27.10;65.20;;;;;;5094991;28;20036;-81
2022/07/23 03:06:41;;;;;;;5.22;4.28;;;27.10;65.50;;;;;;5095561;28;20399;-81
2022/07/23 03:09:07;;;;;;;6.28;5.00;;;27.10;65.80;;;;;;5095290;28;20509;-78
2022/07/23 03:11:32;;;;;;;5.95;4.93;;;27.10;66.10;;;;;;5095470;28;20020;-80
2022/07/23 03:13:58;;;;;;;6.85;5.45;;;27.10;66.00;;;;;;5094952;28;20028;-81
2022/07/23 03:16:23;;;;;;;7.80;4.93;;;27.10;65.90;;;;;;5094806;28;20154;-81
2022/07/23 03:18:49;;;;;;;6.45;4.95;;;27.10;66.00;;;;;;5095472;28;20372;-81
2022/07/23 03:21:15;;;;;;;6.00;4.90;;;27.10;65.60;;;;;;5094423;28;20518;-81
2022/07/23 03:23:40;;;;;;;6.07;4.78;;;27.10;65.70;;;;;;5094791;28;20032;-83
2022/07/23 03:26:06;;;;;;;5.75;4.70;;;27.20;65.40;;;;;;5094759;28;20027;-80
2022/07/23 03:28:32;;;;;;;5.70;4.78;;;27.20;65.30;;;;;;5094167;28;20035;-82
2022/07/23 03:30:57;;;;;;;5.57;4.95;;;27.20;65.50;;;;;;5095109;28;20023;-80
2022/07/23 03:33:23;;;;;;;7.15;4.82;;;27.20;65.60;;;;;;5094789;28;20031;-80
2022/07/23 03:35:49;;;;;;;6.00;4.60;;;27.20;66.30;;;;;;5094679;28;20055;-81
2022/07/23 03:38:15;;;;;;;8.02;5.43;;;27.10;66.20;;;;;;5093501;28;20035;-81
2022/07/23 03:40:41;;;;;;;6.93;4.90;;;27.10;66.30;;;;;;5094882;28;20069;-81
2022/07/23 03:43:07;;;;;;;6.82;4.90;;;27.10;66.70;;;;;;5094472;28;20040;-81
2022/07/23 03:45:33;;;;;;;5.95;4.90;;;27.10;66.40;;;;;;5093859;28;20376;-80
2022/07/23 03:47:59;;;;;;;5.55;4.85;;;27.10;66.20;;;;;;5094517;28;20415;-81
2022/07/23 03:50:24;;;;;;;5.97;4.75;;;27.10;66.20;;;;;;5094213;28;20020;-81
2022/07/23 03:52:50;;;;;;;7.13;4.75;;;27.10;65.90;;;;;;5094230;28;20028;-81
2022/07/23 03:55:16;;;;;;;6.65;4.88;;;27.10;65.80;;;;;;5093261;28;20358;-82
2022/07/23 03:57:42;;;;;;;5.63;4.72;;;27.10;65.70;;;;;;5094772;28;20368;-81
2022/07/23 04:00:09;;;;;;;5.50;4.38;;;27.10;65.50;;;;;;5094682;28;20457;-81
2022/07/23 04:02:36;;;;;;;5.60;4.90;;;27.10;65.80;;;;;;5094303;28;20063;-81
2022/07/23 04:05:02;;;;;;;5.35;4.53;;;27.10;65.70;;;;;;5094169;28;20020;-81
2022/07/23 04:07:28;;;;;;;6.03;4.53;;;27.10;65.80;;;;;;5093762;28;20024;-81
2022/07/23 04:09:54;;;;;;;4.97;4.35;;;27.10;66.20;;;;;;5094423;28;20034;-82
2022/07/23 04:12:20;;;;;;;5.88;4.70;;;27.10;66.00;;;;;;5093838;28;20081;-81
2022/07/23 04:14:45;;;;;;;5.72;4.78;;;27.10;65.90;;;;;;5094225;28;20020;-82
2022/07/23 04:17:12;;;;;;;6.57;5.10;;;27.10;66.00;;;;;;5094048;28;20020;-82
2022/07/23 04:19:41;;;;;;;5.25;4.68;;;27.10;66.10;;;;;;5092553;28;20054;-82
2022/07/23 04:22:07;;;;;;;6.30;4.47;;;27.10;65.70;;;;;;5094044;28;20028;-82
2022/07/23 04:24:33;;;;;;;5.35;4.75;;;27.10;65.60;;;;;;5093454;28;20103;-82
2022/07/23 04:26:59;;;;;;;5.35;4.38;;;27.10;65.50;;;;;;5093630;28;20066;-82
2022/07/23 04:29:25;;;;;;;5.38;4.38;;;27.10;64.80;;;;;;5093146;28;20044;-81
2022/07/23 04:31:51;;;;;;;5.28;4.28;;;27.20;64.80;;;;;;5093744;28;20020;-82
2022/07/23 04:34:16;;;;;;;4.57;4.18;;;27.20;64.60;;;;;;5093066;28;20469;-82
2022/07/23 04:36:42;;;;;;;4.43;4.03;;;27.20;64.40;;;;;;5093624;28;20106;-82
2022/07/23 04:39:07;;;;;;;4.13;3.70;;;27.20;64.10;;;;;;5093286;28;20036;-82
2022/07/23 04:41:34;;;;;;;5.10;4.40;;;27.20;64.50;;;;;;5093165;28;20028;-82
2022/07/23 04:44:00;;;;;;;9.50;3.92;;;27.20;63.90;;;;;;5093320;28;20042;-82
2022/07/23 04:46:26;;;;;;;4.55;4.13;;;27.30;64.20;;;;;;5093094;28;20028;-82
2022/07/23 04:48:52;;;;;;;5.00;4.13;;;27.30;64.30;;;;;;5092407;28;20549;-82
2022/07/23 04:51:17;;;;;;;5.72;4.25;;;27.40;63.80;;;;;;5093000;28;20089;-82
2022/07/23 04:53:43;;;;;;;5.75;4.18;;;27.50;63.40;;;;;;5093725;28;20066;-82
2022/07/23 04:56:09;;;;;;;4.72;4.18;;;27.60;63.50;;;;;;5092169;28;20020;-82
2022/07/23 04:58:34;;;;;;;4.68;4.10;;;27.70;63.10;;;;;;5093467;28;20028;-82
2022/07/23 05:01:00;;;;;;;4.72;3.83;;;27.80;62.30;;;;;;5093340;28;20024;-82
2022/07/23 05:03:26;;;;;;;4.50;4.07;;;27.90;61.90;;;;;;5092768;28;20128;-83
2022/07/23 05:05:51;;;;;;;5.97;4.25;;;27.90;61.80;;;;;;5093371;28;20028;-82
2022/07/23 05:08:17;;;;;;;5.85;4.45;;;28.00;62.00;;;;;;5092645;28;20465;-80
2022/07/23 05:10:43;;;;;;;5.72;4.05;;;28.00;60.70;;;;;;5092899;28;20028;-81
2022/07/23 05:13:08;;;;;;;5.78;4.38;;;28.00;60.20;;;;;;5092927;28;20047;-81
2022/07/23 05:15:34;;;;;;;5.05;3.80;;;28.10;60.10;;;;;;5092685;28;20380;-79
2022/07/23 05:17:59;;;;;;;5.57;3.97;;;28.10;60.00;;;;;;5093096;28;20024;-81
2022/07/23 05:20:25;;;;;;;5.90;4.75;;;28.30;59.60;;;;;;5092698;28;20028;-81
2022/07/23 05:22:51;;;;;;;5.57;4.63;;;28.40;59.10;;;;;;5093034;28;20081;-81
2022/07/23 05:25:17;;;;;;;6.90;4.35;;;28.60;58.90;;;;;;5092454;28;20031;-80
2022/07/23 05:27:42;;;;;;;7.22;4.88;;;28.80;58.30;;;;;;5092774;28;20031;-82
2022/07/23 05:30:09;;;;;;;5.53;4.53;;;28.90;57.80;;;;;;5093139;28;20105;-82
2022/07/23 05:32:36;;;;;;;5.25;4.72;;;29.10;57.40;;;;;;5092597;28;20032;-82
2022/07/23 05:35:02;;;;;;;5.65;4.93;;;29.20;57.40;;;;;;5093024;28;20093;-82
2022/07/23 05:37:28;;;;;;;10.30;4.40;;;29.40;56.70;;;;;;5091696;28;20115;-81
2022/07/23 05:39:53;;;;;;;4.85;4.00;;;29.60;56.50;;;;;;5093175;28;20107;-82
2022/07/23 05:42:19;;;;;;;5.82;4.40;;;29.80;56.10;;;;;;5092164;28;20495;-82
2022/07/23 05:44:45;;;;;;;5.38;3.83;;;30.10;55.90;;;;;;5092771;28;20063;-82
2022/07/23 05:47:10;;;;;;;5.35;4.60;;;30.20;55.40;;;;;;5093179;28;20028;-82
2022/07/23 05:49:38;;;;;;;5.95;4.20;;;30.30;55.60;;;;;;5092515;28;20400;-82
2022/07/23 05:52:05;;;;;;;5.60;4.88;;;30.60;55.70;;;;;;5092736;28;20040;-81
2022/07/23 05:54:31;;;;;;;6.60;4.65;;;30.70;54.90;;;;;;5092455;28;20043;-82
2022/07/23 05:56:56;;;;;;;5.95;4.43;;;30.70;55.00;;;;;;5092533;28;20461;-82
2022/07/23 05:59:22;;;;;;;4.60;3.90;;;30.70;54.90;;;;;;5092187;28;20021;-82
2022/07/23 06:01:48;;;;;;;5.22;4.47;;;30.60;55.10;;;;;;5092461;28;20047;-83
2022/07/23 06:04:13;;;;;;;4.93;4.07;;;30.50;55.60;;;;;;5092322;28;20032;-83
2022/07/23 06:06:39;;;;;;;5.55;4.20;;;30.40;55.80;;;;;;5092132;28;20110;-82
2022/07/23 06:09:04;;;;;;;4.47;4.05;;;30.20;56.20;;;;;;5092591;28;20052;-82
2022/07/23 06:11:30;;;;;;;5.65;3.92;;;30.10;56.30;;;;;;5092129;28;20051;-82
2022/07/23 06:13:56;;;;;;;4.30;3.65;;;30.00;56.60;;;;;;5092873;28;20036;-82
2022/07/23 06:16:21;;;;;;;5.57;4.60;;;29.80;56.90;;;;;;5092254;28;20541;-82
2022/07/23 06:18:47;;;;;;;5.57;4.32;;;29.60;57.40;;;;;;5096279;28;20499;-84
2022/07/23 06:21:12;;;;;;;6.82;3.83;;;29.40;58.00;;;;;;5096244;28;20024;-82
2022/07/23 06:23:38;;;;;;;5.97;4.10;;;29.30;58.60;;;;;;5095510;28;20032;-83
2022/07/23 06:26:04;;;;;;;6.07;4.78;;;29.20;59.20;;;;;;5096375;28;20024;-82
2022/07/23 06:28:29;;;;;;;4.93;3.97;;;29.20;59.50;;;;;;5095462;28;20020;-82
2022/07/23 06:30:55;;;;;;;4.78;3.92;;;29.20;59.70;;;;;;5094669;28;20478;-82
2022/07/23 06:33:21;;;;;;;6.25;3.80;;;29.30;59.70;;;;;;5095974;28;20065;-82
2022/07/23 06:35:47;;;;;;;7.90;4.18;;;29.40;59.30;;;;;;5095797;28;20105;-83
2022/07/23 06:38:13;;;;;;;6.63;4.65;;;29.40;59.30;;;;;;5095949;28;20028;-83
2022/07/23 06:40:38;;;;;;;5.15;3.85;;;29.40;59.40;;;;;;5095767;28;20107;-83
2022/07/23 06:43:04;;;;;;;5.60;3.55;;;29.60;58.90;;;;;;5094393;28;20032;-82
2022/07/23 06:45:30;;;;;;;5.22;3.83;;;29.60;58.10;;;;;;5095691;28;20062;-81
2022/07/23 06:47:55;;;;;;;4.00;3.50;;;29.60;57.40;;;;;;5096132;28;20565;-83
2022/07/23 06:50:21;;;;;;;5.07;3.80;;;29.80;56.70;;;;;;5095684;28;20376;-83
2022/07/23 06:52:47;;;;;;;3.70;3.20;;;30.20;55.70;;;;;;5095150;28;20396;-84
2022/07/23 06:55:12;;;;;;;4.22;3.15;;;30.50;54.30;;;;;;5095497;28;20028;-82
2022/07/23 06:57:38;;;;;;;3.47;3.15;;;30.80;52.90;;;;;;5094888;28;20032;-82
2022/07/23 07:00:04;;;;;;;3.15;2.67;;;31.00;52.00;;;;;;5095585;28;20028;-83
2022/07/23 07:02:30;;;;;;;3.10;2.70;;;31.00;52.10;;;;;;5094898;28;20039;-83
2022/07/23 07:04:56;;;;;;;3.33;2.90;;;31.20;51.00;;;;;;5095812;28;20376;-83
2022/07/23 07:07:21;;;;;;;2.85;2.40;;;31.30;50.80;;;;;;5098442;28;20127;-82
2022/07/23 07:09:47;;;;;;;3.85;2.83;;;31.50;50.20;;;;;;5095642;28;20471;-82
2022/07/23 07:12:13;;;;;;;3.17;2.45;;;31.80;49.00;;;;;;5096059;28;20051;-82
2022/07/23 07:14:38;;;;;;;2.42;2.20;;;32.30;47.90;;;;;;5095466;28;20038;-82
2022/07/23 07:17:04;;;;;;;3.53;2.38;;;32.40;46.60;;;;;;5095666;28;20073;-83
2022/07/23 07:19:30;;;;;;;2.50;2.30;;;32.90;46.20;;;;;;5094854;28;20020;-82
2022/07/23 07:21:56;;;;;;;2.67;2.08;;;33.20;45.80;;;;;;5095764;28;20077;-83
2022/07/23 07:24:21;;;;;;;2.72;2.20;;;33.50;45.10;;;;;;5095498;28;20411;-83
2022/07/23 07:26:47;;;;;;;2.15;2.00;;;33.90;43.90;;;;;;5094675;28;20032;-83
2022/07/23 07:29:12;;;;;;;2.78;2.45;;;34.10;43.20;;;;;;5094337;28;20075;-84
2022/07/23 07:31:38;;;;;;;2.70;2.15;;;33.90;43.10;;;;;;5094746;28;20026;-84
2022/07/23 07:34:04;;;;;;;2.72;2.25;;;34.00;43.30;;;;;;5095684;28;20043;-84
2022/07/23 07:36:29;;;;;;;2.75;2.28;;;34.00;43.30;;;;;;5094845;28;20069;-85
2022/07/23 07:38:55;;;;;;;2.20;2.00;;;34.20;43.20;;;;;;5093640;28;20200;-84
2022/07/23 07:41:23;;;;;;;3.13;2.10;;;34.10;42.90;;;;;;5095393;28;20032;-85
2022/07/23 07:43:50;;;;;;;3.55;2.60;;;34.20;42.80;;;;;;5094717;28;20024;-85
2022/07/23 07:46:16;;;;;;;3.40;2.20;;;34.20;42.80;;;;;;5095126;28;20032;-84
2022/07/23 07:48:41;;;;;;;2.80;2.08;;;34.10;42.50;;;;;;5093592;28;20024;-85
2022/07/23 07:51:07;;;;;;;3.17;2.30;;;34.30;42.80;;;;;;5095629;28;20069;-84
2022/07/23 07:53:33;;;;;;;2.47;2.28;;;34.30;42.50;;;;;;5094464;28;20028;-85
2022/07/23 07:55:59;;;;;;;2.78;2.00;;;34.40;42.60;;;;;;5094798;28;20101;-85
2022/07/23 07:58:24;;;;;;;3.13;2.05;;;34.50;42.10;;;;;;5094897;28;20024;-85
2022/07/23 08:00:51;;;;;;;2.40;2.10;;;34.60;42.40;;;;;;5094817;28;20456;-85
2022/07/23 08:03:17;;;;;;;2.97;2.20;;;34.70;41.70;;;;;;5094782;28;20031;-86
2022/07/23 08:05:42;;;;;;;1.85;1.73;;;34.60;41.10;;;;;;5094498;28;20032;-85
2022/07/23 08:08:09;;;;;;;3.63;2.25;;;34.70;41.00;;;;;;5094518;28;20479;-86
2022/07/23 08:10:35;;;;;;;2.35;2.15;;;34.50;40.80;;;;;;5094551;28;20039;-85
2022/07/23 08:13:01;;;;;;;3.92;2.30;;;34.30;41.40;;;;;;5094537;28;20032;-85
2022/07/23 08:15:29;;;;;;;4.05;2.03;;;34.10;41.60;;;;;;5094477;28;20031;-85
2022/07/23 08:17:55;;;;;;;2.30;2.10;;;34.20;42.10;;;;;;5094198;28;20034;-85
2022/07/23 08:20:23;;;;;;;3.58;2.45;;;34.20;42.10;;;;;;5093819;28;20024;-83
2022/07/23 08:22:54;;;;;;;2.53;2.33;;;33.90;41.80;;;;;;5093289;28;20139;-85
2022/07/23 08:25:22;;;;;;;2.35;2.13;;;33.90;42.40;;;;;;5094011;28;20024;-84
2022/07/23 08:27:49;;;;;;;2.45;2.05;;;34.20;42.40;;;;;;5093462;28;20031;-84
2022/07/23 08:30:16;;;;;;;3.45;2.63;;;34.90;41.80;;;;;;5093826;28;20072;-84
2022/07/23 08:33:02;;;;;;;3.53;2.70;;;35.10;41.10;;;;;;5093811;28;20028;-84
2022/07/23 08:35:36;;;;;;;3.28;2.70;;;35.40;40.90;;;;;;5094234;28;20054;-85
2022/07/23 08:38:05;;;;;;;2.85;2.50;;;35.70;40.30;;;;;;5092035;28;20028;-85
2022/07/23 08:40:36;;;;;;;3.28;2.40;;;36.10;39.60;;;;;;5093290;28;20047;-84
2022/07/23 08:43:07;;;;;;;2.90;2.53;;;36.40;39.50;;;;;;5127540;27;20414;-86
2022/07/23 08:45:38;;;;;;;2.95;2.17;;;36.50;38.70;;;;;;5094494;28;20326;-84
2022/07/23 08:48:10;;;;;;;3.03;2.38;;;36.40;39.10;;;;;;5094462;28;20028;-85
2022/07/23 08:50:37;;;;;;;2.70;2.20;;;36.60;38.90;;;;;;5094076;28;20435;-84
2022/07/23 08:53:05;;;;;;;3.42;2.83;;;36.20;38.60;;;;;;5094194;28;20039;-84
2022/07/23 08:55:31;;;;;;;3.60;2.67;;;35.60;39.40;;;;;;5093888;28;20028;-83
2022/07/23 08:57:57;;;;;;;2.90;2.60;;;35.90;39.40;;;;;;5093917;28;20384;-85
2022/07/23 09:00:22;;;;;;;4.00;1.95;;;35.80;39.20;;;;;;5094166;28;20036;-85
2022/07/23 09:02:50;;;;;;;5.50;3.03;;;35.40;39.40;;;;;;5093671;28;20028;-86
2022/07/23 09:05:17;;;;;;;2.75;2.45;;;34.90;39.70;;;;;;5093980;28;20039;-85
2022/07/23 09:08:10;;;;;;;3.17;2.55;;;34.50;40.20;;;;;;5126646;27;20092;-85
2022/07/23 09:10:46;;;;;;;2.95;2.65;;;34.40;40.60;;;;;;5126195;27;20119;-85
2022/07/23 09:13:31;;;;;;;2.70;2.40;;;34.20;40.80;;;;;;5093936;28;20460;-85
2022/07/23 09:16:03;;;;;;;3.17;2.45;;;34.00;40.90;;;;;;5095823;28;20055;-85
2022/07/23 09:18:47;;;;;;;4.68;2.60;;;33.90;41.30;;;;;;5100677;28;20028;-85
2022/07/23 09:21:16;;;;;;;3.63;3.08;;;33.80;42.00;;;;;;5093430;28;20518;-85
2022/07/23 09:24:02;;;;;;;3.10;2.60;;;33.70;41.80;;;;;;5093368;28;20028;-86
2022/07/23 09:26:32;;;;;;;2.80;2.60;;;33.70;41.90;;;;;;5093566;28;20055;-85
2022/07/23 09:29:11;;;;;;;3.08;2.45;;;33.60;41.80;;;;;;5093661;28;20052;-85
2022/07/23 09:31:54;;;;;;;3.50;2.75;;;33.30;41.90;;;;;;5093289;28;20057;-85
2022/07/23 09:34:26;;;;;;;2.75;2.22;;;33.20;42.20;;;;;;5093589;28;20036;-85
2022/07/23 09:36:54;;;;;;;3.58;2.53;;;33.10;42.60;;;;;;5092921;28;20024;-85
2022/07/23 09:39:31;;;;;;;3.63;3.05;;;33.00;43.00;;;;;;5093950;28;20032;-86
2022/07/23 09:41:58;;;;;;;3.40;2.55;;;33.00;42.70;;;;;;5093307;28;20051;-86
2022/07/23 09:44:24;;;;;;;3.78;2.80;;;33.00;43.20;;;;;;5093493;28;20035;-86
2022/07/23 09:46:57;;;;;;;2.95;2.50;;;33.00;43.10;;;;;;5093139;28;20032;-87
2022/07/23 09:49:23;;;;;;;2.72;2.47;;;32.90;42.90;;;;;;5093565;28;20032;-86
2022/07/23 09:51:55;;;;;;;2.88;2.63;;;32.90;43.40;;;;;;5094157;28;20031;-86
2022/07/23 09:54:32;;;;;;;2.78;2.53;;;33.00;43.20;;;;;;5097112;28;20070;-86
2022/07/23 09:57:01;;;;;;;4.45;2.90;;;33.10;43.70;;;;;;5096576;28;20031;-85
2022/07/23 09:59:33;;;;;;;2.90;2.58;;;33.10;43.30;;;;;;5097284;28;20021;-86
2022/07/23 10:01:59;;;;;;;2.90;2.60;;;33.20;43.50;;;;;;5096746;28;20375;-86
2022/07/23 10:04:27;;;;;;;3.20;2.78;;;33.20;42.90;;;;;;5097124;28;20032;-86
2022/07/23 10:06:56;;;;;;;4.95;2.72;;;33.20;42.40;;;;;;5096673;28;20039;-85
2022/07/23 10:09:30;;;;;;;5.70;3.20;;;33.20;42.80;;;;;;5096981;28;20028;-86
2022/07/23 10:12:09;;;;;;;3.92;2.78;;;33.30;43.20;;;;;;5096313;28;20024;-85
2022/07/23 10:14:35;;;;;;;4.40;2.83;;;33.30;43.40;;;;;;5097232;28;20050;-85
2022/07/23 10:17:03;;;;;;;3.45;2.80;;;33.30;43.40;;;;;;5096421;28;20036;-86
2022/07/23 10:19:30;;;;;;;3.00;2.70;;;33.30;43.10;;;;;;5096669;28;20543;-86
2022/07/23 10:22:09;;;;;;;3.15;2.85;;;33.30;43.40;;;;;;5095889;28;20484;-86
2022/07/23 10:24:57;;;;;;;4.13;3.10;;;33.30;43.60;;;;;;5096334;28;20028;-86
2022/07/23 10:27:39;;;;;;;3.33;2.50;;;33.30;43.60;;;;;;5096327;28;20028;-86
2022/07/23 10:30:07;;;;;;;4.47;3.40;;;33.40;43.60;;;;;;5096264;28;20059;-85
2022/07/23 10:33:10;;;;;;;4.10;2.83;;;33.40;43.90;;;;;;5096192;28;20404;-84
2022/07/23 10:35:46;;;;;;;3.67;3.35;;;33.40;43.60;;;;;;5094901;28;20110;-86
2022/07/23 10:38:25;;;;;;;2.92;2.67;;;33.50;43.20;;;;;;5096282;28;20026;-85
2022/07/23 10:41:00;;;;;;;3.22;2.92;;;33.50;42.80;;;;;;5095241;28;20024;-84
2022/07/23 10:43:27;;;;;;;3.50;2.63;;;33.60;42.20;;;;;;5075728;28;20131;-85
2022/07/23 10:45:53;;;;;;;2.75;2.20;;;33.60;42.20;;;;;;5075186;28;20024;-85
2022/07/23 10:48:26;;;;;;;3.17;2.85;;;33.60;41.90;;;;;;5075792;28;20056;-86
2022/07/23 10:51:15;;;;;;;3.47;2.83;;;33.60;41.90;;;;;;5075430;28;20067;-86
2022/07/23 10:53:54;;;;;;;3.38;2.90;;;33.60;42.90;;;;;;5107902;28;20029;-83
2022/07/23 10:56:50;;;;;;;3.47;3.17;;;33.50;42.30;;;;;;5075382;28;20032;-85
2022/07/23 10:59:16;;;;;;;3.05;2.63;;;33.20;42.40;;;;;;5075360;28;20016;-86
2022/07/23 11:01:42;;;;;;;3.47;2.72;;;33.20;42.90;;;;;;5074931;28;20442;-85
2022/07/23 11:04:08;;;;;;;4.63;2.83;;;33.30;43.00;;;;;;5075065;28;20032;-86
2022/07/23 11:06:48;;;;;;;3.70;3.35;;;33.30;42.90;;;;;;5075627;28;20025;-85
2022/07/23 11:09:37;;;;;;;3.75;2.95;;;33.20;43.10;;;;;;5075462;28;20025;-85
2022/07/23 11:12:24;;;;;;;4.72;2.83;;;33.20;43.20;;;;;;5074628;28;20108;-85
2022/07/23 11:15:07;;;;;;;4.05;3.22;;;33.20;43.20;;;;;;5074885;28;20035;-85
2022/07/23 11:17:53;;;;;;;3.80;3.40;;;33.10;43.10;;;;;;5075066;28;20043;-86
2022/07/23 11:20:24;;;;;;;2.55;2.35;;;33.10;43.40;;;;;;5079441;28;20149;-86
2022/07/23 11:22:54;;;;;;;4.03;2.95;;;33.10;43.90;;;;;;5074667;28;20028;-87
2022/07/23 11:25:22;;;;;;;3.53;3.20;;;33.20;44.00;;;;;;5107773;28;20043;-86
2022/07/23 11:27:50;;;;;;;4.65;3.40;;;33.20;44.10;;;;;;5080139;28;20032;-85
2022/07/23 11:30:28;;;;;;;3.22;2.88;;;33.20;44.60;;;;;;5075587;28;20128;-86
2022/07/23 11:33:14;;;;;;;3.75;2.83;;;33.20;44.70;;;;;;5074834;28;20032;-86
2022/07/23 11:35:49;;;;;;;3.20;2.90;;;33.30;44.90;;;;;;5074740;28;20461;-86
2022/07/23 11:38:20;;;;;;;3.45;2.92;;;33.30;44.80;;;;;;5074947;28;20028;-86
2022/07/23 11:40:57;;;;;;;3.63;3.15;;;33.40;45.10;;;;;;5074428;28;20063;-86
2022/07/23 11:43:23;;;;;;;3.65;3.28;;;33.50;44.50;;;;;;5074607;28;20027;-86
2022/07/23 11:45:56;;;;;;;4.10;3.40;;;33.50;45.30;;;;;;5074053;28;20494;-86
2022/07/23 11:48:24;;;;;;;3.05;2.75;;;33.60;44.30;;;;;;5074816;28;20032;-86
2022/07/23 11:50:51;;;;;;;5.03;3.40;;;33.50;44.50;;;;;;5074152;28;20024;-85
2022/07/23 11:53:23;;;;;;;4.22;3.50;;;33.60;44.40;;;;;;5074441;28;20028;-85
2022/07/23 11:55:49;;;;;;;4.13;3.35;;;33.50;44.80;;;;;;5080035;28;20460;-86
2022/07/23 11:58:14;;;;;;;3.97;3.35;;;33.50;44.70;;;;;;5093339;28;20035;-85
2022/07/23 12:00:41;;;;;;;3.50;3.20;;;33.50;44.70;;;;;;5094149;28;20411;-86
2022/07/23 12:03:07;;;;;;;3.90;3.50;;;33.50;45.00;;;;;;5093824;28;20376;-87
2022/07/23 12:05:37;;;;;;;3.75;3.35;;;33.40;45.10;;;;;;5093390;28;20046;-86
2022/07/23 12:08:05;;;;;;;3.53;3.10;;;33.50;45.40;;;;;;5093930;28;20020;-86
2022/07/23 12:10:36;;;;;;;4.95;3.60;;;33.50;45.20;;;;;;5094449;28;20123;-85
2022/07/23 12:13:05;;;;;;;3.60;3.25;;;33.60;45.20;;;;;;5092409;28;20502;-86
2022/07/23 12:15:34;;;;;;;4.78;3.55;;;33.60;45.00;;;;;;5092621;28;20024;-84
2022/07/23 12:18:01;;;;;;;3.35;3.05;;;33.50;45.30;;;;;;5093731;28;20034;-84
2022/07/23 12:20:30;;;;;;;3.25;2.80;;;33.50;45.10;;;;;;5094119;28;20056;-85
2022/07/23 12:22:59;;;;;;;4.63;3.28;;;33.60;44.80;;;;;;5093760;28;20021;-84
2022/07/23 12:25:30;;;;;;;4.03;3.22;;;33.50;44.50;;;;;;5093651;28;20435;-85
2022/07/23 12:28:10;;;;;;;3.03;2.78;;;33.60;44.30;;;;;;5093467;28;20047;-84
2022/07/23 12:30:46;;;;;;;4.25;3.28;;;33.50;44.10;;;;;;5094282;28;20477;-85
2022/07/23 12:33:15;;;;;;;3.97;3.08;;;33.30;44.40;;;;;;5093989;28;20488;-85
2022/07/23 12:35:46;;;;;;;4.40;3.10;;;33.20;44.40;;;;;;5093695;28;20034;-85
2022/07/23 12:38:17;;;;;;;3.65;3.03;;;33.10;44.40;;;;;;5093867;28;20024;-84
2022/07/23 12:40:46;;;;;;;2.90;2.60;;;33.00;44.50;;;;;;5093757;28;20130;-85
2022/07/23 12:43:39;;;;;;;3.25;2.60;;;32.90;44.00;;;;;;5093168;28;20365;-85
2022/07/23 12:46:07;;;;;;;3.03;2.72;;;32.70;44.20;;;;;;5092749;28;20027;-85
2022/07/23 12:48:49;;;;;;;4.88;3.75;;;32.40;44.50;;;;;;5093747;28;20075;-84
2022/07/23 12:51:15;;;;;;;3.47;2.58;;;32.30;44.90;;;;;;5094227;28;20028;-85
2022/07/23 12:53:50;;;;;;;3.40;3.10;;;32.20;45.20;;;;;;5093559;28;20035;-85